Terminal Aerodrome Forecast
Issued by NWS

Home | Current Version | Previous Version | Text Only | Print | Product List | Glossary On
Versions: 1 2 3 4 5 6 7 8 9 10 11 12 13
000
FTUS44 KEPZ 231100
TAFLRU
TAF
KLRU 231120Z 2312/2412 26008KT P6SM SCT100 BKN250
     FM231600 25015G25KT P6SM SCT250
     FM232000 26024G36KT P6SM FEW250
      TEMPO 2320/2324 3SM BLDU
     FM240300 28013G22KT P6SM SKC=

USA.gov is the U.S. government's official web portal to all federal, state and local government web resources and services.